Time;durP1;ratioP1;P1;durP2;ratioP2;P2;SDS_P1;SDS_P2;PMS_P1;PMS_P2;Temp;Humidity;BMP_temperature;BMP_pressure;BME280_temperature;BME280_humidity;BME280_pressure;Samples;Min_cycle;Max_cycle;Signal;HPM_P1;HPM_P2
2023/07/31 00:01:23;;;;;;;1.98;0.90;;;20.20;99.90;;;;;;1902635;75;21126;-81
2023/07/31 00:04:14;;;;;;;1.40;0.90;;;20.30;99.90;;;;;;1891484;75;21066;-81
2023/07/31 00:07:06;;;;;;;1.50;1.10;;;20.30;99.90;;;;;;1885621;75;21111;-81
2023/07/31 00:09:58;;;;;;;1.65;1.07;;;20.20;99.90;;;;;;1889363;75;21510;-81
2023/07/31 00:12:49;;;;;;;2.08;1.20;;;20.10;99.90;;;;;;1914034;75;21201;-81
2023/07/31 00:15:41;;;;;;;2.35;1.10;;;20.10;99.90;;;;;;1904919;75;21126;-81
2023/07/31 00:18:32;;;;;;;2.67;1.10;;;20.10;99.90;;;;;;1900648;75;21818;-81
2023/07/31 00:24:01;;;;;;;1.77;1.07;;;20.10;99.90;;;;;;1938510;72;22248;-82
2023/07/31 00:26:52;;;;;;;3.08;1.35;;;20.10;99.90;;;;;;1904633;75;21754;-80
2023/07/31 00:29:43;;;;;;;1.70;0.90;;;20.00;99.90;;;;;;1907642;75;21107;-81
2023/07/31 00:32:34;;;;;;;1.57;0.98;;;19.90;99.90;;;;;;1903349;75;21102;-81
2023/07/31 00:35:28;;;;;;;2.47;1.10;;;19.90;99.90;;;;;;1915125;75;21712;-81
2023/07/31 00:38:19;;;;;;;1.72;0.93;;;20.00;99.90;;;;;;1899951;75;21195;-81
2023/07/31 00:43:50;;;;;;;2.10;1.10;;;19.90;99.90;;;;;;1937338;72;22642;-81
2023/07/31 00:49:19;;;;;;;1.85;0.80;;;19.70;99.90;;;;;;1936709;72;22188;-81
2023/07/31 00:52:12;;;;;;;2.37;1.00;;;19.70;99.90;;;;;;1895815;75;21619;-81
2023/07/31 00:55:09;;;;;;;1.90;0.80;;;19.50;99.90;;;;;;1903460;75;21086;-81
2023/07/31 00:58:00;;;;;;;3.12;1.20;;;19.50;99.90;;;;;;1906228;74;21092;-81
2023/07/31 01:00:51;;;;;;;2.65;0.80;;;19.40;99.90;;;;;;1904513;75;21106;-82
2023/07/31 01:03:45;;;;;;;1.80;1.10;;;19.40;99.90;;;;;;1901379;75;21182;-81
2023/07/31 01:06:39;;;;;;;2.22;1.17;;;19.40;99.90;;;;;;1903669;74;21212;-81
2023/07/31 01:09:35;;;;;;;4.25;1.30;;;19.50;99.90;;;;;;1904792;74;21208;-81
2023/07/31 01:15:15;;;;;;;2.05;1.00;;;19.40;99.90;;;;;;1933837;72;22305;-81
2023/07/31 01:18:07;;;;;;;2.12;1.30;;;19.40;99.90;;;;;;1912756;75;21195;-81
2023/07/31 01:24:13;;;;;;;2.55;1.05;;;19.30;99.90;;;;;;1947272;72;22145;-81
2023/07/31 01:29:47;;;;;;;2.52;1.55;;;19.40;99.90;;;;;;1943869;72;22193;-81
2023/07/31 01:32:40;;;;;;;3.65;1.22;;;19.40;99.90;;;;;;1917958;73;21144;-81
2023/07/31 01:38:10;;;;;;;2.72;1.10;;;19.30;99.90;;;;;;1947864;72;22224;-81
2023/07/31 01:43:39;;;;;;;3.47;1.00;;;19.20;99.90;;;;;;1936073;72;22314;-81
2023/07/31 01:46:30;;;;;;;1.95;1.02;;;19.20;99.90;;;;;;1893042;75;21235;-81
2023/07/31 01:49:22;;;;;;;1.95;1.25;;;19.10;99.90;;;;;;1891012;75;21086;-81
2023/07/31 01:54:54;;;;;;;2.00;1.40;;;18.80;99.90;;;;;;1940239;72;22268;-81
2023/07/31 02:00:25;;;;;;;2.60;1.20;;;18.70;99.90;;;;;;1912294;72;22355;-81
2023/07/31 02:03:16;;;;;;;3.60;0.90;;;18.60;99.90;;;;;;1908030;75;21525;-81
2023/07/31 02:06:07;;;;;;;2.60;1.10;;;18.70;99.90;;;;;;1905725;75;21074;-80
2023/07/31 02:08:59;;;;;;;3.25;1.17;;;18.70;99.90;;;;;;1900540;75;21211;-80
2023/07/31 02:11:50;;;;;;;1.15;0.98;;;18.60;99.90;;;;;;1905493;75;21106;-81
2023/07/31 02:14:41;;;;;;;1.67;1.05;;;18.60;99.90;;;;;;1904813;75;21126;-81
2023/07/31 02:17:33;;;;;;;3.05;0.90;;;18.70;99.90;;;;;;1903146;75;21109;-81
2023/07/31 02:23:03;;;;;;;2.25;1.10;;;18.70;99.90;;;;;;1930960;72;22287;-82
2023/07/31 02:28:33;;;;;;;2.75;1.20;;;18.70;99.90;;;;;;1939309;72;22247;-80
2023/07/31 02:31:24;;;;;;;2.45;1.17;;;18.60;99.90;;;;;;1939193;73;21581;-80
2023/07/31 02:34:15;;;;;;;2.25;1.50;;;18.60;99.90;;;;;;1913870;73;21126;-80
2023/07/31 02:37:07;;;;;;;3.15;1.30;;;18.60;99.90;;;;;;1929396;73;21103;-81
2023/07/31 02:39:58;;;;;;;2.10;1.20;;;18.60;99.90;;;;;;1926196;73;21106;-81
2023/07/31 02:42:50;;;;;;;1.87;1.20;;;18.40;99.90;;;;;;1922904;73;21118;-81
2023/07/31 02:45:42;;;;;;;2.00;1.10;;;18.40;99.90;;;;;;1927737;73;21126;-81
2023/07/31 02:48:34;;;;;;;2.77;1.25;;;18.40;99.90;;;;;;1915652;75;21170;-81
2023/07/31 02:51:25;;;;;;;2.67;1.20;;;18.30;99.90;;;;;;1914306;74;21149;-81
2023/07/31 02:54:16;;;;;;;2.98;1.30;;;18.30;99.90;;;;;;1925379;73;21097;-81
2023/07/31 02:57:07;;;;;;;2.08;1.40;;;18.20;99.90;;;;;;1929315;73;21155;-81
2023/07/31 02:59:58;;;;;;;2.58;1.25;;;18.20;99.90;;;;;;1917375;73;21240;-80
2023/07/31 03:05:28;;;;;;;2.95;1.25;;;18.10;99.90;;;;;;1946602;72;22317;-81
2023/07/31 03:08:19;;;;;;;2.22;1.12;;;18.10;99.90;;;;;;1938002;73;21116;-82
2023/07/31 03:13:52;;;;;;;2.62;1.17;;;17.90;99.90;;;;;;1934831;72;22264;-80
2023/07/31 03:16:43;;;;;;;2.58;1.20;;;18.00;99.90;;;;;;1908573;75;21168;-83
2023/07/31 03:19:34;;;;;;;1.92;1.07;;;17.90;99.90;;;;;;1890940;75;21176;-81
2023/07/31 03:22:26;;;;;;;2.00;1.00;;;17.80;99.90;;;;;;1913695;75;21222;-83
2023/07/31 03:25:17;;;;;;;2.20;1.30;;;17.70;99.90;;;;;;1897442;74;21113;-82
2023/07/31 03:28:08;;;;;;;2.25;1.20;;;17.70;99.90;;;;;;1908391;75;21095;-82
2023/07/31 03:31:00;;;;;;;2.00;1.10;;;17.70;99.90;;;;;;1897045;75;21228;-82
2023/07/31 03:33:52;;;;;;;3.15;1.10;;;17.70;99.90;;;;;;1902106;74;21058;-81
2023/07/31 03:36:44;;;;;;;2.52;1.30;;;17.80;99.90;;;;;;1894414;74;21090;-81
2023/07/31 03:39:35;;;;;;;2.08;1.20;;;17.70;99.90;;;;;;1902019;75;21149;-81
2023/07/31 03:42:27;;;;;;;2.27;1.30;;;17.60;99.90;;;;;;1910415;75;22385;-81
2023/07/31 03:47:57;;;;;;;2.60;1.00;;;17.60;99.90;;;;;;1940310;72;22260;-81
2023/07/31 03:50:48;;;;;;;4.28;1.22;;;17.70;99.90;;;;;;1901498;75;21163;-81
2023/07/31 03:53:40;;;;;;;2.98;1.20;;;17.80;99.90;;;;;;1891646;75;21110;-81
2023/07/31 03:56:31;;;;;;;3.83;1.50;;;17.80;99.90;;;;;;1882427;75;21724;-81
2023/07/31 04:02:04;;;;;;;2.08;1.02;;;17.80;99.90;;;;;;1952210;72;22247;-82
2023/07/31 04:04:56;;;;;;;2.50;1.42;;;17.90;99.90;;;;;;1923607;73;21087;-81
2023/07/31 04:07:47;;;;;;;2.80;1.05;;;17.80;99.90;;;;;;1914584;75;21106;-82
2023/07/31 04:13:17;;;;;;;2.37;1.12;;;17.80;99.90;;;;;;1950925;72;22165;-80
2023/07/31 04:18:47;;;;;;;2.52;1.30;;;17.90;99.90;;;;;;1944766;72;22243;-81
2023/07/31 04:21:38;;;;;;;1.80;1.20;;;17.90;99.90;;;;;;1896165;75;21114;-81
2023/07/31 04:24:32;;;;;;;1.70;0.93;;;17.90;99.90;;;;;;1910427;75;21139;-81
2023/07/31 04:30:03;;;;;;;2.37;1.22;;;17.90;99.90;;;;;;1942885;72;22277;-81
2023/07/31 04:32:54;;;;;;;2.40;1.15;;;17.90;99.90;;;;;;1880413;75;21195;-82
2023/07/31 04:35:52;;;;;;;3.58;1.32;;;17.90;99.90;;;;;;1900861;74;21129;-82
2023/07/31 04:38:43;;;;;;;2.37;1.25;;;17.90;99.90;;;;;;1888194;75;21118;-80
2023/07/31 04:41:34;;;;;;;1.60;1.50;;;17.90;99.90;;;;;;1885574;75;21094;-81
2023/07/31 04:44:25;;;;;;;3.12;1.50;;;18.00;99.90;;;;;;1898714;75;21098;-81
2023/07/31 04:47:16;;;;;;;3.12;1.47;;;18.10;99.90;;;;;;1887059;75;21179;-82
2023/07/31 04:50:09;;;;;;;4.37;1.50;;;18.10;99.90;;;;;;1886365;75;21345;-81
2023/07/31 04:53:01;;;;;;;3.72;1.50;;;18.00;99.90;;;;;;1899884;75;21232;-82
2023/07/31 04:59:32;;;;;;;;;;;;;;;;;;;;;
2023/07/31 05:05:41;;;;;;;4.95;1.27;;;17.90;99.90;;;;;;1938652;72;22228;-80
2023/07/31 05:08:55;;;;;;;3.60;1.47;;;17.90;99.90;;;;;;1933174;73;21116;-80
2023/07/31 05:12:03;;;;;;;2.27;1.40;;;17.90;99.90;;;;;;1894029;75;21180;-80
2023/07/31 05:14:55;;;;;;;2.50;1.32;;;18.00;99.90;;;;;;1920853;73;21118;-80
2023/07/31 05:17:46;;;;;;;4.65;1.22;;;18.10;99.90;;;;;;1916953;73;21172;-80
2023/07/31 05:20:37;;;;;;;2.98;1.40;;;18.10;99.90;;;;;;1914311;73;21202;-80
2023/07/31 05:23:29;;;;;;;3.22;1.45;;;18.20;99.90;;;;;;1914401;73;21172;-80
2023/07/31 05:26:20;;;;;;;5.33;1.52;;;18.30;99.90;;;;;;1918665;73;21187;-80
2023/07/31 05:29:11;;;;;;;2.87;1.55;;;18.30;99.90;;;;;;1915352;75;21167;-81
2023/07/31 05:32:02;;;;;;;2.72;1.42;;;18.40;99.90;;;;;;1924716;73;21141;-81
2023/07/31 05:34:54;;;;;;;4.00;1.37;;;18.30;99.90;;;;;;1928228;73;21279;-81
2023/07/31 05:40:29;;;;;;;1.90;1.30;;;18.40;99.90;;;;;;1926212;72;22181;-83
2023/07/31 05:43:20;;;;;;;2.55;1.52;;;18.40;99.90;;;;;;1897780;75;21101;-82
2023/07/31 05:46:12;;;;;;;1.95;1.35;;;18.40;99.90;;;;;;1882606;75;21219;-82
2023/07/31 05:49:03;;;;;;;3.55;1.60;;;18.50;99.90;;;;;;1895614;75;21101;-81
2023/07/31 05:51:55;;;;;;;3.02;1.37;;;18.50;99.90;;;;;;1911738;75;21126;-87
2023/07/31 05:54:46;;;;;;;2.20;1.60;;;18.50;99.90;;;;;;1882918;75;21146;-87
2023/07/31 06:02:57;;;;;;;3.25;1.72;;;18.50;99.90;;;;;;1939853;72;22224;-87
2023/07/31 06:08:29;;;;;;;3.10;1.50;;;18.60;99.90;;;;;;1941007;72;23189;-86
2023/07/31 06:13:59;;;;;;;2.65;1.52;;;18.70;99.90;;;;;;1950102;72;22210;-86
2023/07/31 06:16:50;;;;;;;2.75;1.70;;;18.80;99.90;;;;;;1903724;75;21118;-88
2023/07/31 06:19:41;;;;;;;4.83;1.90;;;18.80;99.90;;;;;;1890640;74;21106;-87
2023/07/31 06:22:33;;;;;;;4.12;1.57;;;18.80;99.90;;;;;;1911513;75;21105;-87
2023/07/31 06:28:07;;;;;;;2.87;1.87;;;18.70;99.90;;;;;;1925220;72;22153;-86
2023/07/31 06:30:58;;;;;;;3.62;1.67;;;18.80;99.90;;;;;;1887063;75;21208;-87
2023/07/31 06:33:49;;;;;;;5.10;1.67;;;18.70;99.90;;;;;;1896064;73;21175;-86
2023/07/31 06:36:41;;;;;;;4.25;1.62;;;18.80;99.90;;;;;;1896112;73;21151;-88
2023/07/31 06:39:32;;;;;;;5.22;2.25;;;18.90;99.90;;;;;;1895171;73;21844;-87
2023/07/31 06:42:23;;;;;;;1.95;1.40;;;18.90;99.90;;;;;;1893628;73;21220;-87
2023/07/31 06:45:14;;;;;;;3.15;1.72;;;18.90;99.90;;;;;;1897164;73;21174;-87
2023/07/31 06:48:06;;;;;;;4.08;2.50;;;19.00;99.90;;;;;;1895491;73;21114;-87
2023/07/31 06:50:57;;;;;;;2.92;1.70;;;19.00;99.90;;;;;;1885823;73;21422;-88
2023/07/31 06:53:48;;;;;;;2.52;1.72;;;19.10;99.90;;;;;;1870137;73;21091;-88
2023/07/31 06:56:40;;;;;;;3.45;2.30;;;19.10;99.90;;;;;;1889121;73;21104;-87
2023/07/31 06:59:32;;;;;;;3.85;2.50;;;19.10;99.90;;;;;;1891473;73;21153;-87
2023/07/31 07:02:23;;;;;;;5.08;2.90;;;19.20;99.90;;;;;;1892061;73;21192;-87
2023/07/31 07:07:52;;;;;;;6.15;2.83;;;19.30;99.90;;;;;;1936616;72;22321;-81
2023/07/31 07:10:58;;;;;;;5.40;2.70;;;19.40;99.90;;;;;;1910241;74;21221;-81
2023/07/31 07:14:10;;;;;;;4.25;2.22;;;19.50;99.90;;;;;;1910704;74;21113;-80
2023/07/31 07:17:05;;;;;;;3.37;1.60;;;19.60;99.90;;;;;;1903748;74;21175;-81
2023/07/31 07:19:56;;;;;;;4.90;1.80;;;19.70;99.90;;;;;;1908137;74;21161;-81
2023/07/31 07:22:48;;;;;;;3.55;1.57;;;19.80;99.90;;;;;;1910634;74;21112;-80
2023/07/31 07:25:40;;;;;;;4.83;1.77;;;19.80;99.90;;;;;;1903980;74;21158;-80
2023/07/31 07:28:31;;;;;;;4.47;1.72;;;19.80;99.90;;;;;;1907724;74;21150;-80
2023/07/31 07:31:23;;;;;;;2.12;1.42;;;19.90;99.90;;;;;;1902503;74;21151;-80
2023/07/31 07:34:14;;;;;;;2.05;1.10;;;20.00;99.90;;;;;;1908107;74;21126;-80
2023/07/31 07:37:07;;;;;;;3.40;1.32;;;20.10;99.90;;;;;;1910935;74;21199;-80
2023/07/31 07:39:59;;;;;;;5.05;1.82;;;20.20;99.90;;;;;;1911435;74;21162;-80
2023/07/31 07:42:52;;;;;;;3.55;1.45;;;20.30;99.90;;;;;;1907527;74;21138;-81
2023/07/31 07:45:43;;;;;;;1.72;1.10;;;20.20;99.90;;;;;;1909231;74;21193;-81
2023/07/31 07:48:34;;;;;;;2.62;1.37;;;20.20;99.90;;;;;;1915282;74;21297;-80
2023/07/31 07:51:26;;;;;;;2.62;1.52;;;20.20;99.90;;;;;;1910141;74;21235;-80
2023/07/31 07:54:17;;;;;;;2.58;1.25;;;20.30;99.90;;;;;;1911781;74;21169;-80
2023/07/31 07:57:08;;;;;;;2.22;1.42;;;20.30;99.90;;;;;;1903632;74;21114;-80
2023/07/31 08:00:00;;;;;;;2.27;1.40;;;20.50;99.90;;;;;;1907104;74;21278;-80
2023/07/31 08:02:53;;;;;;;2.80;1.22;;;20.50;99.90;;;;;;1912196;74;21538;-80
2023/07/31 08:05:45;;;;;;;2.22;1.45;;;20.60;99.90;;;;;;1907239;74;21129;-81
2023/07/31 08:08:37;;;;;;;2.67;1.30;;;20.70;99.90;;;;;;1895390;74;21118;-80
2023/07/31 08:11:28;;;;;;;2.83;1.35;;;20.80;99.90;;;;;;1908760;74;21176;-80
2023/07/31 08:14:20;;;;;;;2.98;1.30;;;20.80;99.90;;;;;;1906470;74;21126;-80
2023/07/31 08:17:11;;;;;;;3.90;1.22;;;20.90;99.90;;;;;;1909586;74;21198;-80
2023/07/31 08:20:02;;;;;;;2.47;1.50;;;21.00;99.90;;;;;;1913273;74;21130;-80
2023/07/31 08:22:54;;;;;;;3.25;1.42;;;21.00;99.90;;;;;;1903955;74;21239;-80
2023/07/31 08:25:46;;;;;;;3.00;1.40;;;21.00;99.90;;;;;;1905917;74;21111;-80
2023/07/31 08:28:37;;;;;;;3.40;1.50;;;21.00;99.90;;;;;;1894359;75;21202;-80
2023/07/31 08:31:29;;;;;;;3.67;1.62;;;21.10;99.90;;;;;;1899169;75;21107;-79
2023/07/31 08:34:20;;;;;;;3.27;1.30;;;21.10;99.90;;;;;;1908540;74;21076;-80
2023/07/31 08:37:12;;;;;;;2.72;1.50;;;21.00;99.90;;;;;;1911360;74;21667;-80
2023/07/31 08:40:03;;;;;;;3.22;1.20;;;21.00;99.90;;;;;;1899812;75;21126;-80
2023/07/31 08:42:58;;;;;;;3.05;1.60;;;21.00;99.90;;;;;;1908806;74;21121;-80
2023/07/31 08:45:51;;;;;;;4.47;2.25;;;21.10;99.90;;;;;;1900192;75;21233;-80
2023/07/31 08:48:45;;;;;;;2.62;1.20;;;21.20;99.90;;;;;;1905718;74;21471;-80
2023/07/31 08:51:37;;;;;;;2.65;1.30;;;21.20;99.90;;;;;;1911206;74;21100;-80
2023/07/31 08:54:30;;;;;;;1.90;0.98;;;21.30;99.90;;;;;;1909047;74;21058;-81
2023/07/31 09:00:00;;;;;;;2.55;1.17;;;21.40;99.90;;;;;;1930323;72;22264;-80
2023/07/31 09:02:57;;;;;;;2.45;1.00;;;21.40;99.90;;;;;;1893867;73;21271;-79
2023/07/31 09:08:33;;;;;;;2.25;1.10;;;21.60;99.90;;;;;;1942212;72;22555;-80
2023/07/31 09:11:26;;;;;;;2.27;1.12;;;21.60;99.90;;;;;;1915833;73;21214;-80
2023/07/31 09:14:20;;;;;;;3.37;1.15;;;21.70;99.90;;;;;;1922873;73;21106;-80
2023/07/31 09:17:15;;;;;;;3.60;1.25;;;21.70;99.90;;;;;;1921138;73;21201;-81
2023/07/31 09:22:55;;;;;;;2.62;1.20;;;21.80;99.90;;;;;;1923347;72;22245;-80
2023/07/31 09:25:46;;;;;;;2.83;1.10;;;21.90;99.90;;;;;;1895646;74;21158;-80
2023/07/31 09:28:39;;;;;;;5.12;1.40;;;21.90;99.90;;;;;;1893341;74;21243;-80
2023/07/31 09:34:40;;;;;;;2.30;1.20;;;22.10;99.90;;;;;;1933246;72;22284;-79
2023/07/31 09:37:32;;;;;;;3.65;1.20;;;22.20;99.90;;;;;;1881178;75;21211;-80
2023/07/31 09:40:31;;;;;;;3.45;1.22;;;22.20;99.90;;;;;;1895600;75;21106;-81
2023/07/31 09:43:24;;;;;;;2.33;1.10;;;22.30;99.90;;;;;;1904361;75;21098;-81
2023/07/31 09:46:17;;;;;;;3.20;1.27;;;22.40;99.90;;;;;;1884854;75;21110;-80
2023/07/31 09:49:11;;;;;;;2.17;1.22;;;22.40;99.90;;;;;;1893758;75;21124;-80
2023/07/31 09:52:04;;;;;;;3.00;1.22;;;22.60;99.90;;;;;;1884352;74;21138;-80
2023/07/31 09:54:56;;;;;;;2.10;1.15;;;22.60;99.90;;;;;;1896760;75;21558;-80
2023/07/31 09:57:49;;;;;;;3.45;1.60;;;22.60;99.90;;;;;;1898168;75;21614;-80
2023/07/31 10:00:41;;;;;;;3.65;1.45;;;22.60;99.90;;;;;;1883795;75;21170;-80
2023/07/31 10:03:34;;;;;;;4.55;1.45;;;22.80;99.90;;;;;;1891506;75;21510;-81
2023/07/31 10:09:06;;;;;;;3.95;1.32;;;23.10;99.90;;;;;;1947227;72;22193;-80
2023/07/31 10:12:01;;;;;;;2.35;1.25;;;23.00;99.90;;;;;;1912763;74;21118;-80
2023/07/31 10:14:54;;;;;;;3.25;1.30;;;23.10;99.90;;;;;;1897681;75;21204;-80
2023/07/31 10:17:45;;;;;;;3.17;1.45;;;23.10;99.90;;;;;;1893338;75;21204;-80
2023/07/31 10:23:20;;;;;;;2.47;1.32;;;23.30;99.90;;;;;;1932281;72;22117;-79
2023/07/31 10:26:14;;;;;;;2.72;1.20;;;23.30;99.90;;;;;;1903520;75;21487;-80
2023/07/31 10:29:07;;;;;;;2.15;1.20;;;23.30;99.90;;;;;;1883736;75;21180;-80
2023/07/31 10:32:00;;;;;;;1.67;1.20;;;23.20;99.90;;;;;;1886016;75;21102;-79
2023/07/31 10:34:52;;;;;;;3.02;1.62;;;23.20;99.90;;;;;;1894305;75;21495;-80
2023/07/31 10:37:44;;;;;;;2.47;1.30;;;23.30;99.90;;;;;;1883192;76;21172;-80
2023/07/31 10:40:36;;;;;;;1.82;1.27;;;23.50;99.90;;;;;;1887665;75;21118;-80
2023/07/31 10:43:27;;;;;;;2.00;1.25;;;23.60;99.90;;;;;;1884101;75;21125;-80
2023/07/31 10:49:03;;;;;;;2.10;1.20;;;23.70;99.90;;;;;;1929400;72;22158;-80
2023/07/31 10:51:56;;;;;;;2.33;1.00;;;23.70;99.90;;;;;;1907300;75;21078;-79
2023/07/31 10:54:48;;;;;;;2.67;1.20;;;23.70;99.90;;;;;;1899931;75;21179;-79
2023/07/31 10:57:40;;;;;;;4.03;1.55;;;23.80;99.90;;;;;;1915585;75;21244;-80
2023/07/31 11:00:31;;;;;;;3.08;1.35;;;23.90;99.90;;;;;;1893978;75;21113;-80
2023/07/31 11:06:10;;;;;;;2.42;1.55;;;24.10;99.90;;;;;;1945864;72;22252;-79
2023/07/31 11:09:01;;;;;;;2.12;1.30;;;24.20;99.90;;;;;;1894463;75;21134;-79
2023/07/31 11:11:53;;;;;;;3.42;1.60;;;24.20;99.90;;;;;;1910260;75;21179;-80
2023/07/31 11:14:44;;;;;;;2.67;1.30;;;24.30;99.90;;;;;;1905392;75;21102;-79
2023/07/31 11:17:37;;;;;;;2.52;1.30;;;24.30;99.90;;;;;;1883335;75;21240;-79
2023/07/31 11:20:28;;;;;;;3.92;1.35;;;24.30;99.90;;;;;;1895458;75;21176;-81
2023/07/31 11:23:20;;;;;;;2.55;1.17;;;24.30;99.90;;;;;;1893877;75;21205;-79
2023/07/31 11:26:11;;;;;;;3.95;1.35;;;24.30;99.90;;;;;;1893757;75;21208;-78
2023/07/31 11:29:03;;;;;;;3.27;1.22;;;24.40;99.90;;;;;;1898329;75;21154;-77
2023/07/31 11:31:54;;;;;;;2.20;1.20;;;24.50;99.90;;;;;;1875574;75;21102;-78
2023/07/31 11:34:54;;;;;;;4.75;1.85;;;24.70;99.90;;;;;;1883121;76;21129;-78
2023/07/31 11:37:46;;;;;;;3.00;1.40;;;24.70;99.90;;;;;;1905414;75;21109;-78
2023/07/31 11:40:44;;;;;;;2.70;1.50;;;24.70;99.90;;;;;;1906704;75;21118;-78
2023/07/31 11:43:36;;;;;;;2.65;1.17;;;24.70;99.90;;;;;;1896622;75;21071;-78
2023/07/31 11:46:28;;;;;;;6.60;1.35;;;24.80;99.90;;;;;;1883621;76;21200;-78
2023/07/31 11:49:19;;;;;;;1.80;1.10;;;24.90;99.90;;;;;;1905237;75;21676;-78
2023/07/31 11:52:11;;;;;;;1.72;1.12;;;25.10;99.90;;;;;;1900799;75;21156;-78
2023/07/31 11:55:03;;;;;;;5.37;2.12;;;25.20;99.90;;;;;;1904095;75;21082;-78
2023/07/31 11:57:56;;;;;;;2.95;1.20;;;25.30;99.90;;;;;;1892176;75;21537;-79
2023/07/31 12:00:49;;;;;;;2.15;1.15;;;25.30;99.90;;;;;;1891392;75;21110;-79
2023/07/31 12:03:42;;;;;;;3.20;1.50;;;25.40;99.90;;;;;;1893790;75;21153;-79
2023/07/31 12:06:37;;;;;;;2.40;1.20;;;25.40;99.90;;;;;;1879129;75;21125;-78
2023/07/31 12:09:29;;;;;;;3.55;1.20;;;25.50;99.90;;;;;;1890022;75;21103;-79
2023/07/31 12:12:23;;;;;;;2.85;1.25;;;25.60;99.90;;;;;;1876675;74;21199;-78
2023/07/31 12:15:19;;;;;;;2.20;1.20;;;25.70;99.90;;;;;;1888874;73;21126;-78
2023/07/31 12:18:12;;;;;;;3.20;1.10;;;25.80;99.90;;;;;;1880835;74;21180;-78
2023/07/31 12:21:05;;;;;;;2.45;1.10;;;25.70;99.90;;;;;;1896120;73;21105;-78
2023/07/31 12:23:56;;;;;;;2.47;1.30;;;25.80;99.90;;;;;;1881673;74;21126;-78
2023/07/31 12:26:49;;;;;;;3.72;1.65;;;26.00;99.90;;;;;;1886232;73;21106;-78
2023/07/31 12:29:43;;;;;;;2.58;1.15;;;26.00;99.90;;;;;;1889544;73;21095;-78
2023/07/31 12:32:35;;;;;;;1.95;1.00;;;26.00;99.90;;;;;;1897381;73;21086;-78
2023/07/31 12:35:28;;;;;;;3.30;1.40;;;26.00;99.90;;;;;;1876488;74;21179;-78
2023/07/31 12:38:21;;;;;;;3.85;1.52;;;26.00;99.90;;;;;;1880428;74;21129;-78
2023/07/31 12:41:12;;;;;;;3.87;1.20;;;26.30;99.90;;;;;;1879407;74;21129;-78
2023/07/31 12:44:04;;;;;;;2.35;1.15;;;26.40;99.90;;;;;;1886647;74;21172;-78
2023/07/31 12:46:55;;;;;;;2.02;1.20;;;26.30;99.90;;;;;;1880336;74;21155;-78
2023/07/31 12:49:46;;;;;;;2.77;1.32;;;26.40;99.90;;;;;;1880078;74;21138;-78
2023/07/31 12:55:27;;;;;;;2.77;1.25;;;26.70;99.90;;;;;;1936806;72;22967;-79
2023/07/31 12:58:19;;;;;;;4.10;1.77;;;26.70;99.90;;;;;;1913778;74;21203;-78
2023/07/31 13:01:10;;;;;;;2.83;1.40;;;26.70;99.90;;;;;;1912144;74;21107;-78
2023/07/31 13:04:01;;;;;;;2.83;1.10;;;26.80;99.90;;;;;;1912052;74;21202;-77
2023/07/31 13:06:53;;;;;;;5.45;1.30;;;26.90;99.90;;;;;;1914790;74;21180;-78
2023/07/31 13:09:44;;;;;;;4.33;1.32;;;26.90;99.90;;;;;;1912572;74;21172;-77
2023/07/31 13:12:35;;;;;;;1.98;1.20;;;26.80;99.90;;;;;;1906697;74;21203;-78
2023/07/31 13:15:27;;;;;;;3.08;1.37;;;26.90;99.90;;;;;;1912538;74;21228;-78
2023/07/31 13:18:18;;;;;;;1.95;1.07;;;27.00;99.90;;;;;;1912571;74;21094;-77
2023/07/31 13:21:10;;;;;;;2.92;1.55;;;27.10;99.90;;;;;;1915159;74;21266;-78
2023/07/31 13:24:01;;;;;;;3.70;1.35;;;27.10;99.90;;;;;;1886164;75;21121;-78
2023/07/31 13:26:53;;;;;;;5.12;1.30;;;27.20;99.60;;;;;;1911084;74;21099;-78
2023/07/31 13:29:44;;;;;;;2.67;1.22;;;27.40;99.30;;;;;;1914283;74;21101;-78
2023/07/31 13:32:38;;;;;;;2.85;1.32;;;27.40;99.10;;;;;;1908499;74;21211;-77
2023/07/31 13:35:31;;;;;;;2.80;1.27;;;27.40;99.10;;;;;;1913713;74;21118;-77
2023/07/31 13:38:22;;;;;;;3.60;1.20;;;27.40;98.80;;;;;;1913502;74;21113;-77
2023/07/31 13:41:14;;;;;;;2.72;1.15;;;27.50;98.80;;;;;;1913529;74;21192;-78
2023/07/31 13:44:05;;;;;;;2.65;1.22;;;27.40;98.80;;;;;;1904965;74;21162;-78
2023/07/31 13:49:38;;;;;;;3.42;1.60;;;27.50;98.90;;;;;;1917844;72;22268;-77
2023/07/31 13:52:29;;;;;;;2.72;1.37;;;27.70;98.30;;;;;;1847456;75;21190;-78
2023/07/31 13:55:21;;;;;;;2.02;1.20;;;28.00;98.00;;;;;;1901712;74;21211;-78
2023/07/31 13:58:12;;;;;;;1.85;1.17;;;28.00;97.50;;;;;;1901398;74;21129;-77
2023/07/31 14:01:05;;;;;;;2.05;1.07;;;28.20;97.30;;;;;;1901012;74;21424;-78
2023/07/31 14:03:56;;;;;;;2.37;1.07;;;28.50;95.50;;;;;;1896972;74;21179;-78
2023/07/31 14:06:50;;;;;;;4.17;1.27;;;28.60;95.50;;;;;;1899681;74;21179;-77
2023/07/31 14:09:41;;;;;;;2.45;1.30;;;29.00;95.10;;;;;;1896447;74;21790;-77
2023/07/31 14:12:33;;;;;;;1.22;1.10;;;29.10;94.30;;;;;;1898500;74;21099;-78
2023/07/31 14:15:25;;;;;;;3.00;1.10;;;29.30;93.80;;;;;;1902900;74;21231;-77
2023/07/31 14:18:17;;;;;;;1.82;1.00;;;29.60;93.40;;;;;;1894918;74;21165;-77
2023/07/31 14:21:15;;;;;;;3.70;1.30;;;29.90;92.20;;;;;;1895290;74;21172;-78
2023/07/31 14:24:07;;;;;;;2.25;1.12;;;29.90;91.60;;;;;;1904346;74;21222;-78
2023/07/31 14:26:58;;;;;;;3.30;1.47;;;30.20;90.80;;;;;;1900024;74;21201;-78
2023/07/31 14:29:54;;;;;;;2.98;1.30;;;30.40;89.60;;;;;;1905501;74;21118;-78
2023/07/31 14:32:45;;;;;;;1.52;1.10;;;30.50;88.70;;;;;;1904875;74;21223;-78
2023/07/31 14:38:38;;;;;;;3.50;1.25;;;30.70;85.20;;;;;;1934884;72;22176;-77
2023/07/31 14:41:29;;;;;;;1.80;1.05;;;30.70;85.10;;;;;;1911051;74;21695;-78
2023/07/31 14:44:21;;;;;;;1.72;1.07;;;30.80;83.70;;;;;;1914504;74;21110;-77
2023/07/31 14:47:12;;;;;;;1.98;1.10;;;30.90;82.60;;;;;;1912780;74;21249;-77
2023/07/31 14:50:04;;;;;;;1.80;1.20;;;30.90;81.30;;;;;;1913921;74;21100;-77
2023/07/31 14:52:56;;;;;;;2.27;1.47;;;30.90;81.40;;;;;;1911446;74;21269;-77
2023/07/31 14:55:47;;;;;;;2.25;1.00;;;31.10;79.70;;;;;;1912711;74;21146;-77
2023/07/31 14:58:38;;;;;;;2.15;1.30;;;31.50;79.00;;;;;;1910801;74;21170;-78
2023/07/31 15:01:29;;;;;;;1.85;1.22;;;31.50;76.70;;;;;;1913336;74;21157;-78
2023/07/31 15:04:21;;;;;;;2.80;1.02;;;31.40;75.80;;;;;;1912591;74;21145;-79
2023/07/31 15:07:13;;;;;;;2.40;1.15;;;31.60;75.20;;;;;;1911957;74;21074;-79
2023/07/31 15:10:06;;;;;;;2.52;1.00;;;31.90;73.20;;;;;;1912421;74;21767;-77
2023/07/31 15:12:58;;;;;;;1.95;1.20;;;31.80;72.50;;;;;;1913308;74;21844;-77
2023/07/31 15:15:49;;;;;;;4.55;1.40;;;31.80;71.20;;;;;;1912549;74;21124;-77
2023/07/31 15:18:43;;;;;;;1.77;1.30;;;31.60;70.50;;;;;;1909985;74;21125;-79
2023/07/31 15:21:35;;;;;;;1.87;1.20;;;31.60;70.50;;;;;;1912793;74;21117;-78
2023/07/31 15:24:27;;;;;;;3.45;1.27;;;31.80;69.70;;;;;;1910161;74;21116;-78
2023/07/31 15:27:18;;;;;;;2.40;1.20;;;32.30;68.80;;;;;;1913227;74;21240;-78
2023/07/31 15:30:11;;;;;;;1.52;1.20;;;32.30;67.50;;;;;;1912840;74;21202;-77
2023/07/31 15:33:03;;;;;;;3.05;1.17;;;32.30;67.30;;;;;;1913137;74;21125;-79
2023/07/31 15:35:55;;;;;;;1.57;1.37;;;32.60;66.90;;;;;;1911635;74;21126;-78
2023/07/31 15:38:50;;;;;;;2.92;1.45;;;32.70;66.60;;;;;;1916073;74;21247;-77
2023/07/31 15:41:40;;;;;;;2.67;1.42;;;33.70;66.50;;;;;;1872645;76;21102;-78
2023/07/31 15:44:31;;;;;;;1.72;1.25;;;34.10;65.50;;;;;;1907755;74;21208;-78
2023/07/31 15:47:22;;;;;;;3.92;1.40;;;33.60;64.80;;;;;;1909240;74;21701;-77
2023/07/31 15:50:15;;;;;;;3.20;1.75;;;33.90;64.80;;;;;;1911422;74;21141;-78
2023/07/31 15:53:06;;;;;;;2.12;1.40;;;33.90;63.90;;;;;;1910939;74;21158;-78
2023/07/31 15:55:58;;;;;;;1.57;1.30;;;33.70;63.00;;;;;;1910821;74;21850;-77
2023/07/31 15:58:50;;;;;;;2.98;1.57;;;33.30;62.70;;;;;;1910886;74;21714;-77
2023/07/31 16:01:41;;;;;;;2.37;1.75;;;33.40;62.50;;;;;;1910459;74;21163;-78
2023/07/31 16:04:34;;;;;;;2.52;1.55;;;33.40;62.40;;;;;;1911985;74;21426;-77
2023/07/31 16:07:26;;;;;;;2.65;1.70;;;33.70;61.80;;;;;;1911931;74;21117;-78
2023/07/31 16:10:18;;;;;;;2.02;1.57;;;33.50;61.20;;;;;;1908916;74;21086;-77
2023/07/31 16:13:09;;;;;;;2.12;1.60;;;33.60;62.00;;;;;;1912108;74;21112;-77
2023/07/31 16:16:00;;;;;;;2.72;1.98;;;33.60;61.70;;;;;;1912341;74;21122;-77
2023/07/31 16:18:51;;;;;;;2.33;1.57;;;33.50;61.70;;;;;;1911750;74;21200;-77
2023/07/31 16:21:42;;;;;;;3.37;2.20;;;33.80;61.60;;;;;;1910979;74;21183;-77
2023/07/31 16:24:36;;;;;;;4.80;2.47;;;33.40;61.00;;;;;;1909904;74;21202;-77
2023/07/31 16:27:27;;;;;;;3.60;2.05;;;33.60;60.50;;;;;;1910542;74;21205;-78
2023/07/31 16:30:18;;;;;;;2.60;2.00;;;33.30;60.40;;;;;;1912602;74;21093;-78
2023/07/31 16:33:09;;;;;;;3.27;2.42;;;34.10;59.60;;;;;;1911915;74;21134;-78
2023/07/31 16:36:01;;;;;;;3.35;2.17;;;34.10;59.80;;;;;;1912242;74;21162;-78
2023/07/31 16:38:52;;;;;;;3.05;2.10;;;33.80;60.00;;;;;;1911930;74;21204;-78
2023/07/31 16:41:44;;;;;;;4.95;2.22;;;33.80;60.60;;;;;;1908294;74;21094;-77
2023/07/31 16:44:36;;;;;;;2.60;1.82;;;34.30;60.00;;;;;;1912098;74;21163;-77